Time;durP1;ratioP1;P1;durP2;ratioP2;P2;SDS_P1;SDS_P2;PMS_P1;PMS_P2;Temp;Humidity;BMP_temperature;BMP_pressure;BME280_temperature;BME280_humidity;BME280_pressure;Samples;Min_cycle;Max_cycle;Signal;HPM_P1;HPM_P2
2023/04/08 00:01:47;;;;;;;16.40;7.90;;;;;;;-142.75;100.00;77952.41;4978362;28;20030;-65
2023/04/08 00:04:13;;;;;;;19.63;8.23;;;;;;;-142.75;100.00;77956.34;5013333;28;20036;-65
2023/04/08 00:06:39;;;;;;;19.05;8.88;;;;;;;-142.75;100.00;77964.22;5013157;28;20471;-65
2023/04/08 00:09:04;;;;;;;22.85;9.25;;;;;;;-142.75;100.00;77950.44;5013465;28;20040;-65
2023/04/08 00:11:29;;;;;;;21.45;9.38;;;;;;;-142.75;100.00;77952.41;4995970;28;20021;-66
2023/04/08 00:13:55;;;;;;;21.02;9.85;;;;;;;-142.75;100.00;77944.53;4995841;28;20018;-66
2023/04/08 00:16:21;;;;;;;24.60;10.25;;;;;;;-142.75;100.00;77932.72;5013236;28;20031;-66
2023/04/08 00:18:48;;;;;;;25.90;10.23;;;;;;;-142.75;100.00;77936.66;5013364;28;20033;-65
2023/04/08 00:21:15;;;;;;;20.95;9.07;;;;;;;-142.75;100.00;77948.47;5013252;28;20036;-66
2023/04/08 00:23:40;;;;;;;23.02;10.25;;;;;;;-142.75;100.00;77936.66;5012966;28;20030;-65
2023/04/08 00:26:06;;;;;;;23.25;10.35;;;;;;;-142.75;100.00;77940.59;5012967;28;20033;-66
2023/04/08 00:28:31;;;;;;;25.65;10.10;;;;;;;-142.75;100.00;77926.81;5013084;28;20029;-66
2023/04/08 00:30:57;;;;;;;27.58;11.35;;;;;;;-142.75;100.00;77922.88;4995498;28;20026;-66
2023/04/08 00:33:24;;;;;;;21.73;9.98;;;;;;;-142.75;100.00;77928.78;4995403;28;20026;-66
2023/04/08 00:35:50;;;;;;;24.83;11.00;;;;;;;-142.75;100.00;77936.66;5012790;28;20022;-66
2023/04/08 00:38:15;;;;;;;25.08;10.32;;;;;;;-142.75;100.00;77940.59;4995447;28;20018;-65
2023/04/08 00:40:41;;;;;;;22.70;10.35;;;;;;;-142.75;100.00;77932.72;5013093;28;20077;-66
2023/04/08 00:43:06;;;;;;;25.25;10.45;;;;;;;-142.75;100.00;77928.78;5012867;28;20512;-66
2023/04/08 00:45:32;;;;;;;24.55;10.75;;;;;;;-142.75;100.00;77938.63;5012676;28;20025;-66
2023/04/08 00:47:58;;;;;;;22.88;10.73;;;;;;;-142.75;100.00;77928.78;5012899;28;20018;-65
2023/04/08 00:50:23;;;;;;;23.17;11.75;;;;;;;-142.75;100.00;77934.69;5012855;28;20454;-64
2023/04/08 00:52:48;;;;;;;27.55;11.52;;;;;;;-142.75;100.00;77920.91;4995029;28;20025;-65
2023/04/08 00:55:14;;;;;;;26.08;11.30;;;;;;;-142.75;100.00;77926.81;5012576;28;20561;-65
2023/04/08 00:57:40;;;;;;;25.70;11.95;;;;;;;-142.75;100.00;77942.56;5012578;28;20056;-66
2023/04/08 01:00:06;;;;;;;26.50;12.75;;;;;;;-142.75;100.00;77940.59;4994973;28;20021;-66
2023/04/08 01:02:56;;;;;;;26.30;13.13;;;;;;;-142.75;100.00;77952.41;5012459;28;20033;-66
2023/04/08 01:05:42;;;;;;;32.83;14.38;;;;;;;-142.75;100.00;77954.38;5012386;28;20026;-65
2023/04/08 01:08:10;;;;;;;31.17;14.13;;;;;;;-142.75;100.00;77944.53;4992375;28;20054;-66
2023/04/08 01:10:37;;;;;;;29.48;14.23;;;;;;;-142.75;100.00;77946.50;4975427;28;20501;-66
2023/04/08 01:13:07;;;;;;;28.55;14.20;;;;;;;-142.75;100.00;77952.41;4991831;28;20473;-64
2023/04/08 01:15:35;;;;;;;29.27;15.40;;;;;;;-142.75;100.00;77948.47;4992532;28;20451;-66
2023/04/08 01:18:06;;;;;;;32.58;15.85;;;;;;;-142.75;100.00;77952.41;4992823;28;20026;-66
2023/04/08 01:20:32;;;;;;;30.05;15.55;;;;;;;-142.75;100.00;77970.13;4992824;28;20026;-64
2023/04/08 01:23:12;;;;;;;32.45;15.80;;;;;;;-142.75;100.00;77950.44;4992607;28;20022;-65
2023/04/08 01:25:38;;;;;;;33.95;16.38;;;;;;;-142.75;100.00;77948.47;4974981;28;20486;-65
2023/04/08 01:28:10;;;;;;;34.42;15.63;;;;;;;-142.75;100.00;77954.38;4992584;28;20034;-65
2023/04/08 01:30:38;;;;;;;34.15;17.33;;;;;;;-142.75;100.00;77926.81;4992631;28;20026;-66
2023/04/08 01:33:05;;;;;;;37.63;16.50;;;;;;;-142.75;100.00;77936.66;4992473;28;20046;-66
2023/04/08 01:35:31;;;;;;;28.80;14.15;;;;;;;-142.75;100.00;77950.44;4992242;28;20018;-66
2023/04/08 01:37:57;;;;;;;34.60;16.52;;;;;;;-142.75;100.00;77950.44;4974713;28;20022;-66
2023/04/08 01:40:22;;;;;;;37.30;16.67;;;;;;;-142.75;100.00;77958.31;4974984;28;20022;-66
2023/04/08 01:42:50;;;;;;;36.60;17.38;;;;;;;-142.75;100.00;77948.47;4975144;28;20560;-66
2023/04/08 01:45:17;;;;;;;34.83;15.88;;;;;;;-142.75;100.00;77952.41;4992470;28;20490;-65
2023/04/08 01:47:46;;;;;;;42.00;17.73;;;;;;;-142.75;100.00;77948.47;4992329;28;20386;-66
2023/04/08 01:50:14;;;;;;;40.33;17.50;;;;;;;-142.75;100.00;77946.50;4992531;28;20037;-65
2023/04/08 01:52:42;;;;;;;35.50;15.68;;;;;;;-142.75;100.00;77940.59;4992547;28;20549;-64
2023/04/08 01:55:07;;;;;;;34.85;16.38;;;;;;;-142.75;100.00;77952.41;4992070;28;20405;-65
2023/04/08 01:57:36;;;;;;;34.92;15.93;;;;;;;-142.75;100.00;77962.25;4990935;28;20023;-66
2023/04/08 02:00:06;;;;;;;35.92;16.98;;;;;;;-142.75;100.00;77958.31;4992339;28;20448;-66
2023/04/08 02:02:35;;;;;;;40.03;17.45;;;;;;;-142.75;100.00;77954.38;4992153;28;20041;-66
2023/04/08 02:05:00;;;;;;;38.60;17.88;;;;;;;-142.75;100.00;77952.41;4992087;28;20029;-66
2023/04/08 02:07:25;;;;;;;37.83;17.38;;;;;;;-142.75;100.00;77946.50;4992126;28;20034;-66
2023/04/08 02:09:51;;;;;;;33.55;16.27;;;;;;;-142.75;100.00;77952.41;4974532;28;20026;-66
2023/04/08 02:12:16;;;;;;;37.90;16.42;;;;;;;-142.75;100.00;77952.41;4977622;28;20110;-66
2023/04/08 02:14:42;;;;;;;40.05;16.98;;;;;;;-142.75;100.00;77946.50;4994851;28;20080;-66
2023/04/08 02:17:10;;;;;;;38.20;17.77;;;;;;;-142.75;100.00;77944.53;4995955;28;20033;-66
2023/04/08 02:19:45;;;;;;;31.30;16.27;;;;;;;-142.75;100.00;77952.41;4996118;28;20022;-65
2023/04/08 02:22:18;;;;;;;39.15;17.77;;;;;;;-142.75;100.00;77956.34;4995759;28;20490;-66
2023/04/08 02:24:45;;;;;;;37.20;17.27;;;;;;;-142.75;100.00;77948.47;4995767;28;20553;-66
2023/04/08 02:27:12;;;;;;;37.87;18.40;;;;;;;-142.75;100.00;77944.53;4995809;28;20026;-65
2023/04/08 02:29:40;;;;;;;36.20;16.97;;;;;;;-142.75;100.00;77944.53;4995891;28;20022;-67
2023/04/08 02:32:07;;;;;;;34.78;16.52;;;;;;;-142.75;100.00;77948.47;4995847;28;20041;-66
2023/04/08 02:34:34;;;;;;;31.70;16.27;;;;;;;-142.75;100.00;77956.34;4995958;28;20026;-66
2023/04/08 02:37:01;;;;;;;33.13;16.05;;;;;;;-142.75;100.00;77944.53;4995627;28;20026;-66
2023/04/08 02:39:33;;;;;;;31.23;15.60;;;;;;;-142.75;100.00;77948.47;4995697;28;20026;-66
2023/04/08 02:41:59;;;;;;;32.38;16.42;;;;;;;-142.75;100.00;77968.16;4995588;28;20023;-65
2023/04/08 02:44:24;;;;;;;36.67;16.45;;;;;;;-142.75;100.00;77960.28;4995605;28;20023;-65
2023/04/08 02:46:50;;;;;;;37.83;17.70;;;;;;;-142.75;100.00;77952.41;4995339;28;20454;-64
2023/04/08 02:49:15;;;;;;;38.45;16.40;;;;;;;-142.75;100.00;77972.09;4995480;28;20026;-66
2023/04/08 02:51:40;;;;;;;32.80;17.00;;;;;;;-142.75;100.00;77974.06;4995451;28;20088;-66
2023/04/08 02:54:06;;;;;;;32.78;16.20;;;;;;;-142.75;100.00;77976.03;4995303;28;20490;-65
2023/04/08 02:56:31;;;;;;;37.75;15.88;;;;;;;-142.75;100.00;77976.03;4995411;28;20102;-65
2023/04/08 02:58:56;;;;;;;36.38;16.23;;;;;;;-142.75;100.00;77976.03;4995331;28;20030;-66
2023/04/08 03:01:22;;;;;;;35.40;16.23;;;;;;;-142.75;100.00;77972.09;4994375;28;20034;-66
2023/04/08 03:03:47;;;;;;;39.00;16.90;;;;;;;-142.75;100.00;77972.09;4995049;28;20035;-66
2023/04/08 03:06:12;;;;;;;37.92;17.42;;;;;;;-142.75;100.00;77970.13;4994908;28;20035;-65
2023/04/08 03:08:38;;;;;;;40.20;16.27;;;;;;;-142.75;100.00;77962.25;4995116;28;20041;-65
2023/04/08 03:11:03;;;;;;;39.60;16.73;;;;;;;-142.75;100.00;77962.25;4995167;28;20018;-62
2023/04/08 03:13:28;;;;;;;36.90;15.98;;;;;;;-142.75;100.00;77964.22;4977599;28;20048;-66
2023/04/08 03:15:54;;;;;;;34.97;16.27;;;;;;;-142.75;100.00;78003.59;4994866;28;20026;-66
2023/04/08 03:18:20;;;;;;;38.00;15.65;;;;;;;-142.75;100.00;77999.66;4994952;28;20026;-66
2023/04/08 03:20:45;;;;;;;35.88;15.18;;;;;;;-142.75;100.00;78019.34;4994902;28;20022;-65
2023/04/08 03:23:11;;;;;;;35.05;15.93;;;;;;;-142.75;100.00;77999.66;4977269;28;20064;-65
2023/04/08 03:25:36;;;;;;;44.60;18.45;;;;;;;-142.75;100.00;78015.41;4977111;28;20054;-66
2023/04/08 03:28:01;;;;;;;34.93;16.23;;;;;;;-142.75;100.00;78011.47;4994749;28;20037;-66
2023/04/08 03:30:26;;;;;;;43.45;17.60;;;;;;;-142.75;100.00;78042.97;4994765;28;20089;-66
2023/04/08 03:32:52;;;;;;;43.00;19.08;;;;;;;-142.75;100.00;78048.88;4994631;28;20401;-66
2023/04/08 03:35:17;;;;;;;38.93;17.67;;;;;;;-142.75;100.00;78048.88;4994587;28;20482;-65
2023/04/08 03:37:42;;;;;;;38.05;17.70;;;;;;;-142.75;100.00;78027.22;4994083;28;20030;-66
2023/04/08 03:40:08;;;;;;;37.85;15.75;;;;;;;-142.75;100.00;78029.19;4994631;28;20049;-66
2023/04/08 03:42:34;;;;;;;37.70;17.58;;;;;;;-142.75;100.00;78029.19;4994441;28;20046;-66
2023/04/08 03:44:59;;;;;;;38.85;17.63;;;;;;;-142.75;100.00;78025.25;4994384;28;20486;-66
2023/04/08 03:47:26;;;;;;;35.27;17.23;;;;;;;-142.75;100.00;78027.22;4994228;28;20478;-66
2023/04/08 03:49:54;;;;;;;37.33;17.33;;;;;;;-142.75;100.00;78039.03;4994291;28;20030;-66
2023/04/08 03:52:20;;;;;;;38.93;16.83;;;;;;;-142.75;100.00;78033.13;4994199;28;20018;-65
2023/04/08 03:54:45;;;;;;;32.50;17.08;;;;;;;-142.75;100.00;78039.03;4994174;28;20037;-66
2023/04/08 03:57:13;;;;;;;40.70;18.00;;;;;;;-142.75;100.00;78035.09;4994140;28;20039;-65
2023/04/08 03:59:39;;;;;;;33.88;15.98;;;;;;;-142.75;100.00;78039.03;4976573;28;20023;-66
2023/04/08 04:02:05;;;;;;;32.83;16.23;;;;;;;-142.75;100.00;78046.91;4994059;28;20026;-66
2023/04/08 04:04:30;;;;;;;39.08;15.90;;;;;;;-142.75;100.00;78046.91;4993820;28;20057;-66
2023/04/08 04:06:56;;;;;;;37.83;15.52;;;;;;;-142.75;100.00;78035.09;4993821;28;20030;-66
2023/04/08 04:09:21;;;;;;;35.92;16.67;;;;;;;-142.75;100.00;78025.25;4976523;28;20061;-66
2023/04/08 04:11:46;;;;;;;39.72;16.92;;;;;;;-142.75;100.00;78041.00;4976529;28;20018;-66
2023/04/08 04:14:12;;;;;;;38.13;16.98;;;;;;;-142.75;100.00;78029.19;4992581;28;20046;-66
2023/04/08 04:16:37;;;;;;;43.95;16.75;;;;;;;-142.75;100.00;78035.09;4993675;28;20022;-66
2023/04/08 04:19:02;;;;;;;33.70;14.98;;;;;;;-142.75;100.00;78058.72;4993733;28;20084;-64
2023/04/08 04:21:28;;;;;;;35.30;15.18;;;;;;;-142.75;100.00;78046.91;4993808;28;20023;-66
2023/04/08 04:23:53;;;;;;;35.80;16.83;;;;;;;-142.75;100.00;78042.97;4993699;28;20045;-66
2023/04/08 04:26:18;;;;;;;38.53;15.43;;;;;;;-142.75;100.00;78068.59;4993526;28;20130;-66
2023/04/08 04:28:43;;;;;;;36.63;15.77;;;;;;;-142.75;100.00;78098.13;4993737;28;20034;-66
2023/04/08 04:31:25;;;;;;;38.30;14.80;;;;;;;-142.75;100.00;78109.94;4993782;28;20044;-65
2023/04/08 04:33:50;;;;;;;29.13;13.40;;;;;;;-142.75;100.00;78107.97;4992934;28;20026;-65
2023/04/08 04:36:15;;;;;;;34.37;14.33;;;;;;;-142.75;100.00;78090.25;4993172;28;20028;-65
2023/04/08 04:38:41;;;;;;;34.97;15.23;;;;;;;-142.75;100.00;78088.28;4993506;28;20486;-65
2023/04/08 04:41:07;;;;;;;33.72;15.18;;;;;;;-142.75;100.00;78082.38;4993302;28;20018;-65
2023/04/08 04:43:32;;;;;;;37.85;16.42;;;;;;;-142.75;100.00;78090.25;4993195;28;20023;-65
2023/04/08 04:45:58;;;;;;;36.20;16.17;;;;;;;-142.75;100.00;78109.94;4992945;28;20080;-65
2023/04/08 04:48:23;;;;;;;38.90;17.20;;;;;;;-142.75;100.00;78080.41;4993248;28;20026;-65
2023/04/08 04:50:56;;;;;;;42.67;18.83;;;;;;;-142.75;100.00;78086.31;4993218;28;20026;-64
2023/04/08 04:53:22;;;;;;;41.47;18.23;;;;;;;-142.75;100.00;78082.38;4993106;28;20058;-65
2023/04/08 04:55:47;;;;;;;39.60;18.10;;;;;;;-142.75;100.00;78098.13;4992858;28;20060;-66
2023/04/08 04:58:12;;;;;;;40.97;17.50;;;;;;;-142.75;100.00;78100.09;4975633;28;20022;-65
2023/04/08 05:00:38;;;;;;;39.65;16.88;;;;;;;-142.75;100.00;78106.00;4993026;28;20030;-65
2023/04/08 05:03:03;;;;;;;41.75;18.08;;;;;;;-142.75;100.00;78102.06;4975467;28;20064;-65
2023/04/08 05:05:28;;;;;;;41.03;17.17;;;;;;;-142.75;100.00;78109.94;4992666;28;20549;-64
2023/04/08 05:07:54;;;;;;;37.23;16.57;;;;;;;-142.75;100.00;78115.84;4992979;28;20022;-65
2023/04/08 05:10:19;;;;;;;39.10;16.47;;;;;;;-142.75;100.00;78117.81;4992992;28;20026;-66
2023/04/08 05:12:45;;;;;;;35.90;16.23;;;;;;;-142.75;100.00;78123.72;4975395;28;20018;-66
2023/04/08 05:15:10;;;;;;;44.17;18.38;;;;;;;-142.75;100.00;78119.78;4992707;28;20510;-65
2023/04/08 05:17:35;;;;;;;30.13;14.83;;;;;;;-142.75;100.00;78109.94;4992669;28;20030;-65
2023/04/08 05:20:01;;;;;;;29.53;15.30;;;;;;;-142.75;100.00;78102.06;4992743;28;20500;-65
2023/04/08 05:22:26;;;;;;;31.33;14.40;;;;;;;-142.75;100.00;78102.06;4992643;28;20029;-65
2023/04/08 05:24:52;;;;;;;34.93;13.33;;;;;;;-142.75;100.00;78125.69;4992579;28;20041;-65
2023/04/08 05:27:17;;;;;;;29.40;12.83;;;;;;;-142.75;100.00;78125.69;4992398;28;20018;-65
2023/04/08 05:29:42;;;;;;;34.60;11.83;;;;;;;-142.75;100.00;78149.31;4991314;28;20018;-66
2023/04/08 05:32:08;;;;;;;38.33;11.40;;;;;;;-142.75;100.00;78169.00;4992431;28;20113;-65
2023/04/08 05:34:33;;;;;;;22.40;10.80;;;;;;;-142.75;100.00;78161.13;4993030;28;20029;-65
2023/04/08 05:36:58;;;;;;;21.23;11.17;;;;;;;-142.75;100.00;78167.03;4981025;28;20022;-66
2023/04/08 05:39:24;;;;;;;20.77;10.10;;;;;;;-142.75;100.00;78176.88;4992280;28;20478;-66
2023/04/08 05:41:49;;;;;;;22.30;10.20;;;;;;;-142.75;100.00;78184.78;4974988;28;20442;-67
2023/04/08 05:44:14;;;;;;;16.27;9.17;;;;;;;-142.75;100.00;78176.88;4992118;28;20089;-65
2023/04/08 05:46:40;;;;;;;17.60;8.30;;;;;;;-142.75;100.00;78188.72;4991192;28;20026;-66
2023/04/08 05:49:05;;;;;;;20.50;8.83;;;;;;;-142.75;100.00;78196.59;4992296;28;20097;-65
2023/04/08 05:51:30;;;;;;;20.10;9.73;;;;;;;-142.75;100.00;78198.56;4992353;28;20037;-65
2023/04/08 05:53:56;;;;;;;22.97;9.27;;;;;;;-142.75;100.00;78216.28;4992162;28;20026;-67
2023/04/08 05:56:21;;;;;;;16.10;8.90;;;;;;;-142.75;100.00;78212.34;4991969;28;20034;-66
2023/04/08 05:58:47;;;;;;;15.90;7.80;;;;;;;-142.75;100.00;78214.31;4992208;28;20027;-66
2023/04/08 06:01:12;;;;;;;21.67;8.87;;;;;;;-142.75;100.00;78228.09;4992279;28;20030;-65
2023/04/08 06:03:38;;;;;;;14.47;8.10;;;;;;;-142.75;100.00;78224.16;4992110;28;20030;-67
2023/04/08 06:06:08;;;;;;;24.03;9.60;;;;;;;-142.75;100.00;78235.97;4974404;28;20117;-64
2023/04/08 06:08:33;;;;;;;26.37;10.30;;;;;;;-142.75;100.00;78239.91;4992081;28;20486;-66
2023/04/08 06:10:58;;;;;;;16.57;9.67;;;;;;;-142.75;100.00;78243.84;4992209;28;20032;-66
2023/04/08 06:13:24;;;;;;;26.57;9.57;;;;;;;-142.75;100.00;78251.72;4992007;28;20646;-67
2023/04/08 06:15:50;;;;;;;21.90;9.57;;;;;;;-142.75;100.00;78265.50;4974790;28;20030;-66
2023/04/08 06:18:16;;;;;;;22.70;10.53;;;;;;;-142.75;100.00;78243.84;4992024;28;20022;-67
2023/04/08 06:20:41;;;;;;;16.67;9.03;;;;;;;-142.75;100.00;78243.84;4992118;28;20053;-68
2023/04/08 06:23:07;;;;;;;16.37;9.77;;;;;;;-142.75;100.00;78247.78;4992138;28;20136;-66
2023/04/08 06:25:32;;;;;;;23.70;9.17;;;;;;;-142.75;100.00;78267.47;4991812;28;20033;-66
2023/04/08 06:27:57;;;;;;;23.77;11.37;;;;;;;-142.75;100.00;78257.63;4974577;28;20057;-66
2023/04/08 06:30:22;;;;;;;22.20;11.20;;;;;;;-142.75;100.00;78241.88;4991964;28;20109;-66
2023/04/08 06:32:48;;;;;;;20.73;11.83;;;;;;;-142.75;100.00;78232.03;4991844;28;20026;-67
2023/04/08 06:35:13;;;;;;;21.50;11.00;;;;;;;-142.75;100.00;78234.00;4991976;28;20022;-66
2023/04/08 06:37:39;;;;;;;24.57;11.47;;;;;;;-142.75;100.00;78224.16;4974350;28;20073;-66
2023/04/08 06:40:05;;;;;;;22.20;11.33;;;;;;;-142.75;100.00;78216.28;4991924;28;20030;-65
2023/04/08 06:42:30;;;;;;;26.20;12.13;;;;;;;-142.75;100.00;78224.16;4991659;28;20529;-65
2023/04/08 06:44:57;;;;;;;21.00;11.50;;;;;;;-142.75;100.00;78226.13;4974193;28;20050;-64
2023/04/08 06:47:22;;;;;;;33.63;11.67;;;;;;;-142.75;100.00;78232.03;4991756;28;20528;-66
2023/04/08 06:49:47;;;;;;;25.10;11.63;;;;;;;-142.75;100.00;78241.88;4991413;28;20026;-66
2023/04/08 06:52:13;;;;;;;25.57;11.97;;;;;;;-142.75;100.00;78253.69;4974203;28;20461;-64
2023/04/08 06:54:38;;;;;;;26.03;12.17;;;;;;;-142.75;100.00;78230.06;4991562;28;20112;-66
2023/04/08 06:57:03;;;;;;;23.77;12.50;;;;;;;-142.75;100.00;78224.16;4992490;28;20074;-67
2023/04/08 06:59:29;;;;;;;21.63;11.97;;;;;;;-142.75;100.00;78220.22;4977571;28;20026;-66
2023/04/08 07:01:54;;;;;;;20.93;11.63;;;;;;;-142.75;100.00;78226.13;4977881;28;20096;-67
2023/04/08 07:04:20;;;;;;;29.47;12.13;;;;;;;-142.75;100.00;78245.81;4995071;28;20057;-65
2023/04/08 07:06:45;;;;;;;24.80;12.77;;;;;;;-142.75;100.00;78235.97;4994910;28;20473;-66
2023/04/08 07:09:11;;;;;;;27.20;13.80;;;;;;;-142.75;100.00;78208.41;4995095;28;20030;-66
2023/04/08 07:11:36;;;;;;;34.67;14.60;;;;;;;-142.75;100.00;78202.50;4995072;28;20451;-68
2023/04/08 07:14:01;;;;;;;31.88;16.27;;;;;;;-142.75;100.00;78196.59;4996323;28;20049;-66
2023/04/08 07:16:27;;;;;;;33.33;15.83;;;;;;;-142.75;100.00;78194.63;4984630;28;20014;-66
2023/04/08 07:18:52;;;;;;;31.10;14.87;;;;;;;-142.75;100.00;78190.69;5002640;28;20026;-67
2023/04/08 07:21:17;;;;;;;36.22;13.80;;;;;;;-142.75;100.00;78196.59;4994501;28;20026;-65
2023/04/08 07:23:43;;;;;;;33.05;15.02;;;;;;;-142.75;100.00;78192.66;4994883;28;20033;-66
2023/04/08 07:26:08;;;;;;;32.00;15.20;;;;;;;-142.75;100.00;78206.44;4994602;28;20031;-65
2023/04/08 07:28:33;;;;;;;33.97;16.63;;;;;;;-142.75;100.00;78196.59;4994744;28;20026;-65
2023/04/08 07:31:10;;;;;;;38.72;17.48;;;;;;;-142.75;100.00;78186.75;4977318;28;20502;-64
2023/04/08 07:33:35;;;;;;;34.13;16.10;;;;;;;-142.75;100.00;78184.78;4994620;28;20479;-67
2023/04/08 07:36:01;;;;;;;31.27;15.80;;;;;;;-142.75;100.00;78172.94;4994442;28;20025;-66
2023/04/08 07:38:26;;;;;;;34.83;16.58;;;;;;;-142.75;100.00;78172.94;4994681;28;20028;-65
2023/04/08 07:40:52;;;;;;;33.00;16.45;;;;;;;-142.75;100.00;78151.28;4994384;28;20033;-68
2023/04/08 07:43:17;;;;;;;35.40;18.08;;;;;;;-142.75;100.00;78137.50;4994392;28;20642;-66
2023/04/08 07:45:42;;;;;;;36.50;18.63;;;;;;;-142.75;100.00;78151.28;4994268;28;20026;-66
2023/04/08 07:48:07;;;;;;;47.10;17.00;;;;;;;-142.75;100.00;78151.28;4994369;28;20022;-64
2023/04/08 07:50:36;;;;;;;36.30;18.40;;;;;;;-142.75;100.00;78155.22;4976880;28;20026;-67
2023/04/08 07:53:02;;;;;;;36.40;17.30;;;;;;;-142.75;100.00;78151.28;4994231;28;20064;-65
2023/04/08 07:55:27;;;;;;;41.03;20.00;;;;;;;-142.75;100.00;78129.63;4994075;28;20018;-63
2023/04/08 07:57:52;;;;;;;40.45;18.92;;;;;;;-142.75;100.00;78129.63;4994162;28;20451;-66
2023/04/08 08:00:20;;;;;;;40.92;19.20;;;;;;;-142.75;100.00;78133.56;4994249;28;20022;-67
2023/04/08 08:02:46;;;;;;;41.85;19.95;;;;;;;-142.75;100.00;78125.69;4994022;28;20098;-66
2023/04/08 08:05:12;;;;;;;37.95;19.77;;;;;;;-142.75;100.00;78115.84;4993828;28;20076;-66
2023/04/08 08:07:37;;;;;;;47.17;20.80;;;;;;;-142.75;100.00;78117.81;4993896;28;20022;-67
2023/04/08 08:10:03;;;;;;;46.78;20.20;;;;;;;-142.75;100.00;78109.94;4993111;28;20022;-66
2023/04/08 08:12:28;;;;;;;43.67;20.23;;;;;;;-142.75;100.00;78098.13;4993850;28;20034;-65
2023/04/08 08:14:57;;;;;;;42.35;20.98;;;;;;;-142.75;100.00;78113.88;4976393;28;20033;-67
2023/04/08 08:17:23;;;;;;;45.38;21.20;;;;;;;-142.75;100.00;78098.13;4993782;28;20026;-64
2023/04/08 08:19:49;;;;;;;40.75;19.88;;;;;;;-142.75;100.00;78102.06;4993875;28;20030;-66
2023/04/08 08:22:14;;;;;;;43.53;21.02;;;;;;;-142.75;100.00;78098.13;4993604;28;20109;-66
2023/04/08 08:24:40;;;;;;;41.33;20.00;;;;;;;-142.75;100.00;78098.13;4993738;28;20114;-65
2023/04/08 08:27:05;;;;;;;43.25;20.40;;;;;;;-142.75;100.00;78096.16;4993505;28;20022;-65
2023/04/08 08:29:31;;;;;;;42.92;20.63;;;;;;;-142.75;100.00;78088.28;4993715;28;20026;-67
2023/04/08 08:31:56;;;;;;;41.00;19.83;;;;;;;-142.75;100.00;78094.19;4993604;28;20027;-65
2023/04/08 08:34:22;;;;;;;42.83;21.33;;;;;;;-142.75;100.00;78080.41;4976098;28;20026;-64
2023/04/08 08:36:47;;;;;;;40.65;21.00;;;;;;;-142.75;100.00;78062.69;4993374;28;20102;-66
2023/04/08 08:39:13;;;;;;;46.33;20.52;;;;;;;-142.75;100.00;78060.72;4993421;28;20028;-66
2023/04/08 08:41:40;;;;;;;45.97;22.70;;;;;;;-142.75;100.00;78070.56;4993618;28;20105;-66
2023/04/08 08:44:06;;;;;;;38.72;19.92;;;;;;;-142.75;100.00;78052.81;4993324;28;20034;-65
2023/04/08 08:46:32;;;;;;;41.55;20.55;;;;;;;-142.75;100.00;78054.81;4993061;28;20038;-68
2023/04/08 08:48:57;;;;;;;41.78;20.98;;;;;;;-142.75;100.00;78056.78;4975840;28;20026;-65
2023/04/08 08:51:23;;;;;;;41.95;21.88;;;;;;;-142.75;100.00;78041.00;4993274;28;20031;-65
2023/04/08 08:53:48;;;;;;;40.85;21.10;;;;;;;-142.75;100.00;78015.41;4993039;28;20562;-66
2023/04/08 08:56:14;;;;;;;36.15;19.45;;;;;;;-142.75;100.00;77987.84;4975422;28;20109;-65
2023/04/08 08:58:39;;;;;;;40.80;19.65;;;;;;;-142.75;100.00;77991.78;4975660;28;20509;-62
2023/04/08 09:01:34;;;;;;;37.92;19.65;;;;;;;-142.75;100.00;78009.50;4975582;28;20406;-66
2023/04/08 09:04:06;;;;;;;41.10;20.85;;;;;;;-142.75;100.00;78011.47;4993041;28;20022;-66
2023/04/08 09:06:31;;;;;;;41.85;20.20;;;;;;;-142.75;100.00;77983.91;4994274;28;20033;-68
2023/04/08 09:08:57;;;;;;;36.25;18.08;;;;;;;-142.75;100.00;78013.44;5003670;28;20104;-66
2023/04/08 09:11:22;;;;;;;38.30;19.75;;;;;;;-142.75;100.00;77999.66;5001153;28;20022;-65
2023/04/08 09:13:47;;;;;;;35.92;18.75;;;;;;;-142.75;100.00;77997.69;4997395;28;20379;-66
2023/04/08 09:16:16;;;;;;;36.00;18.83;;;;;;;-142.75;100.00;77987.84;4981764;28;20493;-66
2023/04/08 09:18:43;;;;;;;32.67;17.63;;;;;;;-142.75;100.00;77970.13;5003149;28;20026;-67
2023/04/08 09:21:10;;;;;;;36.33;19.55;;;;;;;-142.75;100.00;77976.03;4998830;28;20560;-66
2023/04/08 09:23:51;;;;;;;34.22;19.08;;;;;;;-142.75;100.00;77976.03;4984338;28;20022;-68
2023/04/08 09:26:23;;;;;;;32.70;17.52;;;;;;;-142.75;100.00;77942.56;5000726;28;20026;-66
2023/04/08 09:29:02;;;;;;;38.15;19.98;;;;;;;-142.75;100.00;77928.78;4997742;28;20025;-66
2023/04/08 09:31:30;;;;;;;39.42;21.65;;;;;;;-142.75;100.00;77887.41;5000498;28;20099;-66
2023/04/08 09:33:57;;;;;;;38.70;20.92;;;;;;;-142.75;100.00;77853.94;5008892;28;20018;-66
2023/04/08 09:36:25;;;;;;;38.53;21.45;;;;;;;-142.75;100.00;77918.94;4994188;28;20514;-66
2023/04/08 09:38:51;;;;;;;39.75;21.50;;;;;;;-142.75;100.00;77901.19;4994499;28;20105;-67
2023/04/08 09:41:19;;;;;;;39.78;21.80;;;;;;;-142.75;100.00;77844.09;5003943;28;20075;-68
2023/04/08 09:43:50;;;;;;;33.97;19.92;;;;;;;-142.75;100.00;77800.78;4996388;28;20022;-69
2023/04/08 09:46:20;;;;;;;34.03;19.08;;;;;;;-142.75;100.00;77781.09;4993443;28;20026;-67
2023/04/08 09:48:55;;;;;;;32.10;18.00;;;;;;;-142.75;100.00;77755.50;4997133;28;20017;-68
2023/04/08 09:51:23;;;;;;;29.30;17.65;;;;;;;-142.75;100.00;77702.31;4992453;28;20026;-67
2023/04/08 09:53:59;;;;;;;29.58;16.73;;;;;;;-142.75;100.00;77641.28;4992537;28;20359;-67
2023/04/08 09:56:28;;;;;;;28.40;16.52;;;;;;;-142.75;100.00;77680.66;4999491;28;20041;-67
2023/04/08 09:58:59;;;;;;;26.65;16.45;;;;;;;-142.75;100.00;77696.41;4999409;28;20022;-67
2023/04/08 10:01:41;;;;;;;23.60;15.18;;;;;;;-142.75;100.00;77694.44;4981006;28;20061;-67
2023/04/08 10:04:11;;;;;;;23.75;13.98;;;;;;;-142.75;100.00;77670.81;4999196;28;20506;-67
2023/04/08 10:06:37;;;;;;;19.63;13.38;;;;;;;-142.75;100.00;77676.72;5000400;28;20108;-67
2023/04/08 10:09:03;;;;;;;23.48;13.38;;;;;;;-142.75;100.00;77653.09;4997997;28;20101;-66
2023/04/08 10:11:29;;;;;;;22.80;14.75;;;;;;;-142.75;100.00;77662.94;4986689;28;20068;-67
2023/04/08 10:13:55;;;;;;;25.05;15.55;;;;;;;-142.75;100.00;77641.28;5007619;28;20030;-68
2023/04/08 10:16:23;;;;;;;23.00;15.32;;;;;;;-142.75;100.00;77627.50;5002380;28;20159;-67
2023/04/08 10:18:51;;;;;;;21.15;14.15;;;;;;;-142.75;100.00;77676.72;4983087;28;20022;-67
2023/04/08 10:21:46;;;;;;;20.98;13.90;;;;;;;-142.75;100.00;77660.97;5008023;28;20037;-65
2023/04/08 10:24:12;;;;;;;21.42;13.70;;;;;;;-142.75;100.00;77662.94;5002530;28;20025;-67
2023/04/08 10:26:42;;;;;;;20.02;12.07;;;;;;;-142.75;100.00;77700.34;4981997;28;20026;-66
2023/04/08 10:29:16;;;;;;;18.73;12.65;;;;;;;-142.75;100.00;77662.94;5002336;28;20064;-67
2023/04/08 10:31:41;;;;;;;19.15;12.00;;;;;;;-142.75;100.00;77629.47;4984808;28;20022;-67
2023/04/08 10:34:20;;;;;;;18.33;11.80;;;;;;;-142.75;100.00;77592.06;5004172;28;20022;-65
2023/04/08 10:36:46;;;;;;;18.50;11.32;;;;;;;-142.75;100.00;77660.97;5003891;28;20165;-66
2023/04/08 10:39:14;;;;;;;20.25;12.30;;;;;;;-142.75;100.00;77633.41;5011449;28;20784;-67
2023/04/08 10:41:47;;;;;;;19.40;12.63;;;;;;;-142.75;100.00;77594.03;4995749;28;20088;-68
2023/04/08 10:44:19;;;;;;;19.25;11.77;;;;;;;-142.75;100.00;77574.34;5012997;28;20077;-68
2023/04/08 10:46:45;;;;;;;17.90;11.82;;;;;;;-142.75;100.00;77487.72;5013101;28;20106;-67
2023/04/08 10:49:11;;;;;;;19.92;12.32;;;;;;;-142.75;100.00;77456.22;4998006;28;20073;-68
2023/04/08 10:51:38;;;;;;;17.92;12.50;;;;;;;-142.75;100.00;77470.00;4995550;28;20109;-65
2023/04/08 10:54:08;;;;;;;19.05;12.50;;;;;;;-142.75;100.00;77462.13;4977772;28;20026;-67